Time;durP1;ratioP1;P1;durP2;ratioP2;P2;SDS_P1;SDS_P2;PMS_P1;PMS_P2;Temp;Humidity;BMP_temperature;BMP_pressure;BME280_temperature;BME280_humidity;BME280_pressure;Samples;Min_cycle;Max_cycle;Signal;HPM_P1;HPM_P2
2022/08/14 00:00:42;;;;;;;5.23;4.73;;;;;;;;;;5054112;28;20231;-74
2022/08/14 00:03:17;;;;;;;5.10;4.67;;;;;;;;;;5053176;28;20206;-74
2022/08/14 00:05:43;;;;;;;5.63;4.57;;;;;;;;;;5053935;28;20274;-73
2022/08/14 00:08:09;;;;;;;4.70;4.30;;;;;;;;;;5057445;28;20185;-74
2022/08/14 00:10:35;;;;;;;5.23;4.80;;;;;;;;;;5053714;28;20178;-74
2022/08/14 00:13:01;;;;;;;4.80;4.40;;;;;;;;;;5053432;28;20186;-74
2022/08/14 00:15:29;;;;;;;4.97;4.47;;;;;;;;;;5052521;28;20607;-73
2022/08/14 00:17:56;;;;;;;5.20;4.70;;;;;;;;;;5053759;28;20258;-73
2022/08/14 00:20:24;;;;;;;4.63;4.23;;;;;;;;;;5053201;28;20228;-74
2022/08/14 00:22:51;;;;;;;4.87;4.47;;;;;;;;;;5060716;28;20613;-73
2022/08/14 00:25:17;;;;;;;5.37;4.97;;;;;;;;;;5057972;28;20197;-73
2022/08/14 00:27:43;;;;;;;5.27;4.87;;;;;;;;;;5056440;28;20209;-74
2022/08/14 00:30:10;;;;;;;5.60;5.10;;;;;;;;;;5053349;28;20272;-73
2022/08/14 00:32:37;;;;;;;6.27;4.93;;;;;;;;;;5053194;28;20178;-73
2022/08/14 00:35:04;;;;;;;5.80;5.20;;;;;;;;;;5055561;28;20252;-73
2022/08/14 00:37:31;;;;;;;5.33;4.83;;;;;;;;;;5071101;28;20189;-74
2022/08/14 00:39:58;;;;;;;6.23;5.50;;;;;;;;;;5065119;28;20218;-74
2022/08/14 00:42:24;;;;;;;5.93;5.43;;;;;;;;;;5053809;28;20186;-73
2022/08/14 00:44:50;;;;;;;6.07;5.57;;;;;;;;;;5052053;28;20201;-74
2022/08/14 00:47:17;;;;;;;5.90;5.40;;;;;;;;;;5053430;28;20251;-74
2022/08/14 00:49:44;;;;;;;6.97;5.33;;;;;;;;;;5051810;28;20185;-74
2022/08/14 00:52:12;;;;;;;7.30;5.23;;;;;;;;;;5056070;28;20674;-74
2022/08/14 00:54:39;;;;;;;6.10;5.60;;;;;;;;;;5036044;28;20546;-73
2022/08/14 00:57:05;;;;;;;6.40;5.80;;;;;;;;;;5053020;28;20166;-73
2022/08/14 00:59:31;;;;;;;6.40;5.90;;;;;;;;;;5052457;28;20243;-74
2022/08/14 01:01:59;;;;;;;6.03;5.43;;;;;;;;;;5052016;28;20236;-73
2022/08/14 01:04:25;;;;;;;5.80;5.30;;;;;;;;;;5052717;28;20209;-74
2022/08/14 01:06:52;;;;;;;6.30;5.70;;;;;;;;;;5061901;28;20369;-74
2022/08/14 01:09:21;;;;;;;7.03;6.20;;;;;;;;;;5057232;28;20724;-74
2022/08/14 01:11:51;;;;;;;6.50;5.87;;;;;;;;;;5051511;28;20220;-73
2022/08/14 01:14:18;;;;;;;6.17;5.57;;;;;;;;;;5051680;28;20535;-74
2022/08/14 01:16:45;;;;;;;5.97;5.43;;;;;;;;;;5052961;28;20244;-74
2022/08/14 01:21:56;;;;;;;6.40;5.80;;;;;;;;;;5054263;28;20192;-74
2022/08/14 01:24:23;;;;;;;5.80;5.30;;;;;;;;;;5066268;28;20747;-74
2022/08/14 01:26:50;;;;;;;7.67;6.17;;;;;;;;;;5052343;28;20216;-73
2022/08/14 01:29:18;;;;;;;9.30;6.00;;;;;;;;;;5053164;28;20333;-73
2022/08/14 01:34:13;;;;;;;6.47;5.97;;;;;;;;;;5048213;28;20197;-73
2022/08/14 01:36:40;;;;;;;6.70;6.20;;;;;;;;;;5068655;28;20205;-74
2022/08/14 01:39:11;;;;;;;7.03;6.23;;;;;;;;;;5060108;28;20209;-74
2022/08/14 01:41:38;;;;;;;6.90;6.20;;;;;;;;;;5048253;28;20196;-74
2022/08/14 01:44:11;;;;;;;7.27;6.20;;;;;;;;;;5040077;28;20234;-73
2022/08/14 01:46:39;;;;;;;6.40;5.90;;;;;;;;;;5047378;28;20201;-74
2022/08/14 01:49:07;;;;;;;6.63;6.03;;;;;;;;;;5047900;28;20273;-73
2022/08/14 01:51:33;;;;;;;7.07;6.47;;;;;;;;;;5053266;28;20195;-73
2022/08/14 01:54:01;;;;;;;6.53;5.93;;;;;;;;;;5061150;28;20194;-74
2022/08/14 01:56:38;;;;;;;6.70;6.20;;;;;;;;;;5060113;28;20593;-74
2022/08/14 01:59:06;;;;;;;7.43;6.20;;;;;;;;;;5053061;28;20182;-73
2022/08/14 02:01:33;;;;;;;6.97;6.47;;;;;;;;;;5052563;28;20626;-73
2022/08/14 02:03:59;;;;;;;7.00;6.10;;;;;;;;;;5051260;28;20214;-74
2022/08/14 02:06:25;;;;;;;7.00;6.37;;;;;;;;;;5051359;28;20193;-74
2022/08/14 02:08:53;;;;;;;6.63;6.03;;;;;;;;;;5049234;28;20534;-74
2022/08/14 02:11:22;;;;;;;6.83;6.20;;;;;;;;;;5038948;28;20707;-73
2022/08/14 02:13:50;;;;;;;6.70;5.97;;;;;;;;;;5055101;28;20185;-74
2022/08/14 02:16:17;;;;;;;6.23;5.73;;;;;;;;;;5052480;28;20197;-74
2022/08/14 02:18:44;;;;;;;7.57;6.10;;;;;;;;;;5052333;28;20204;-74
2022/08/14 02:21:12;;;;;;;6.60;6.00;;;;;;;;;;5052564;28;20654;-73
2022/08/14 02:23:39;;;;;;;6.37;5.77;;;;;;;;;;5048135;28;20201;-74
2022/08/14 02:26:13;;;;;;;6.57;5.90;;;;;;;;;;5055619;28;20320;-72
2022/08/14 02:28:39;;;;;;;6.20;5.70;;;;;;;;;;5062641;28;20566;-74
2022/08/14 02:31:07;;;;;;;6.43;5.87;;;;;;;;;;5051821;28;20592;-73
2022/08/14 02:33:34;;;;;;;6.60;5.97;;;;;;;;;;5033996;28;20608;-73
2022/08/14 02:36:02;;;;;;;5.83;5.23;;;;;;;;;;5051937;28;20212;-74
2022/08/14 02:38:29;;;;;;;6.07;5.57;;;;;;;;;;5050433;28;20189;-74
2022/08/14 02:40:59;;;;;;;5.63;5.00;;;;;;;;;;5057831;28;20198;-74
2022/08/14 02:43:29;;;;;;;5.73;5.23;;;;;;;;;;5054500;28;20266;-74
2022/08/14 02:45:56;;;;;;;5.90;5.40;;;;;;;;;;5050730;28;20297;-73
2022/08/14 02:48:22;;;;;;;5.43;5.03;;;;;;;;;;5051829;28;20185;-73
2022/08/14 02:50:48;;;;;;;5.60;5.20;;;;;;;;;;5051054;28;20259;-73
2022/08/14 02:53:14;;;;;;;6.10;5.50;;;;;;;;;;5050983;28;20182;-74
2022/08/14 02:55:42;;;;;;;6.70;6.10;;;;;;;;;;5051961;28;20209;-74
2022/08/14 02:58:09;;;;;;;6.07;5.57;;;;;;;;;;5059879;28;20189;-74
2022/08/14 03:00:35;;;;;;;7.07;6.37;;;;;;;;;;5055636;28;20178;-73
2022/08/14 03:03:03;;;;;;;6.40;5.90;;;;;;;;;;5051760;28;20689;-74
2022/08/14 03:05:29;;;;;;;6.20;5.70;;;;;;;;;;5051651;28;20189;-73
2022/08/14 03:08:10;;;;;;;5.77;5.37;;;;;;;;;;5051845;28;20174;-74
2022/08/14 03:10:37;;;;;;;6.47;5.77;;;;;;;;;;5054658;28;20185;-72
2022/08/14 03:13:05;;;;;;;6.00;5.50;;;;;;;;;;5056832;28;20256;-74
2022/08/14 03:15:38;;;;;;;6.37;5.73;;;;;;;;;;5069983;28;20291;-73
2022/08/14 03:18:09;;;;;;;6.43;5.83;;;;;;;;;;5067533;28;20229;-73
2022/08/14 03:20:35;;;;;;;6.50;5.90;;;;;;;;;;5055741;28;20185;-74
2022/08/14 03:23:01;;;;;;;6.47;5.87;;;;;;;;;;5055582;28;20625;-73
2022/08/14 03:25:32;;;;;;;6.17;5.67;;;;;;;;;;5058427;28;20198;-74
2022/08/14 03:28:02;;;;;;;6.10;5.60;;;;;;;;;;5055721;28;20185;-74
2022/08/14 03:30:29;;;;;;;6.37;5.87;;;;;;;;;;5053395;28;20638;-73
2022/08/14 03:32:56;;;;;;;6.07;5.50;;;;;;;;;;5055769;28;20181;-74
2022/08/14 03:35:23;;;;;;;6.30;5.80;;;;;;;;;;5055170;28;20202;-74
2022/08/14 03:37:51;;;;;;;7.13;6.10;;;;;;;;;;5071791;28;20196;-73
2022/08/14 03:40:19;;;;;;;6.03;5.53;;;;;;;;;;5075238;28;20184;-74
2022/08/14 03:42:49;;;;;;;6.27;5.77;;;;;;;;;;5071690;28;20197;-73
2022/08/14 03:45:15;;;;;;;6.47;5.90;;;;;;;;;;5054435;28;20205;-74
2022/08/14 03:47:42;;;;;;;6.00;5.50;;;;;;;;;;5054409;28;20177;-73
2022/08/14 03:50:09;;;;;;;6.23;5.63;;;;;;;;;;5053471;28;20192;-73
2022/08/14 03:52:37;;;;;;;5.90;5.47;;;;;;;;;;5059350;28;20185;-73
2022/08/14 03:55:07;;;;;;;6.43;5.83;;;;;;;;;;5059404;28;20206;-74
2022/08/14 03:57:34;;;;;;;6.30;5.80;;;;;;;;;;5053523;28;20182;-73
2022/08/14 04:00:03;;;;;;;6.40;5.90;;;;;;;;;;5053605;28;20186;-73
2022/08/14 04:02:38;;;;;;;7.43;5.97;;;;;;;;;;5034922;28;20209;-74
2022/08/14 04:05:08;;;;;;;6.57;5.97;;;;;;;;;;5054979;28;20267;-73
2022/08/14 04:07:37;;;;;;;6.57;6.07;;;;;;;;;;5072790;28;20181;-72
2022/08/14 04:10:04;;;;;;;6.30;5.80;;;;;;;;;;5071396;28;20261;-73
2022/08/14 04:12:30;;;;;;;5.93;5.53;;;;;;;;;;5052777;28;20663;-72
2022/08/14 04:14:57;;;;;;;6.63;6.03;;;;;;;;;;5054572;28;20275;-73
2022/08/14 04:17:23;;;;;;;6.73;6.23;;;;;;;;;;5059541;28;20177;-73
2022/08/14 04:19:49;;;;;;;7.03;6.37;;;;;;;;;;5057260;28;20174;-73
2022/08/14 04:22:16;;;;;;;6.77;6.10;;;;;;;;;;5057045;28;20179;-73
2022/08/14 04:24:43;;;;;;;7.40;6.70;;;;;;;;;;5054221;28;20217;-73
2022/08/14 04:27:10;;;;;;;6.67;6.07;;;;;;;;;;5053207;28;20174;-73
2022/08/14 04:29:37;;;;;;;6.97;6.30;;;;;;;;;;5053783;28;20269;-73
2022/08/14 04:32:06;;;;;;;7.07;6.37;;;;;;;;;;5031298;28;20277;-73
2022/08/14 04:34:33;;;;;;;7.30;6.70;;;;;;;;;;5043629;28;20197;-73
2022/08/14 04:45:14;;;;;;;6.40;5.87;;;;;;;;;;5073669;28;20204;-72
2022/08/14 04:50:28;;;;;;;7.50;6.53;;;;;;;;;;5061067;28;20188;-72
2022/08/14 04:52:54;;;;;;;7.87;7.00;;;;;;;;;;5073063;28;20197;-73
2022/08/14 04:55:20;;;;;;;7.57;6.97;;;;;;;;;;5057775;28;20210;-72
2022/08/14 04:57:47;;;;;;;7.73;7.03;;;;;;;;;;5054209;28;20178;-73
2022/08/14 05:00:14;;;;;;;8.60;7.80;;;;;;;;;;5054072;28;20255;-73
2022/08/14 05:02:40;;;;;;;8.30;7.57;;;;;;;;;;5058093;28;20843;-73
2022/08/14 05:05:07;;;;;;;8.33;7.57;;;;;;;;;;5064169;28;20333;-73
2022/08/14 05:07:33;;;;;;;9.53;7.90;;;;;;;;;;5056388;28;20667;-73
2022/08/14 05:10:00;;;;;;;8.37;7.40;;;;;;;;;;5054745;28;20259;-73
2022/08/14 05:12:28;;;;;;;8.07;7.37;;;;;;;;;;5053847;28;20185;-73
2022/08/14 05:14:55;;;;;;;7.80;7.10;;;;;;;;;;5072822;28;20192;-73
2022/08/14 05:17:24;;;;;;;8.37;7.57;;;;;;;;;;5072657;28;20648;-73
2022/08/14 05:19:50;;;;;;;8.17;7.40;;;;;;;;;;5074112;28;20296;-73
2022/08/14 05:22:16;;;;;;;8.33;7.63;;;;;;;;;;5073460;28;20642;-73
2022/08/14 05:24:42;;;;;;;9.27;7.60;;;;;;;;;;5073912;28;20212;-73
2022/08/14 05:27:08;;;;;;;7.70;6.80;;;;;;;;;;5064595;28;20185;-73
2022/08/14 05:29:34;;;;;;;8.07;7.27;;;;;;;;;;5065051;28;20178;-73
2022/08/14 05:32:06;;;;;;;8.03;7.33;;;;;;;;;;5073515;28;20642;-73
2022/08/14 05:34:32;;;;;;;8.90;7.20;;;;;;;;;;5073966;28;20624;-73
2022/08/14 05:37:02;;;;;;;7.73;7.10;;;;;;;;;;5072658;28;20181;-73
2022/08/14 05:39:28;;;;;;;7.77;7.07;;;;;;;;;;5074248;28;20181;-73
2022/08/14 05:41:55;;;;;;;8.43;7.47;;;;;;;;;;5060713;28;20194;-73
2022/08/14 05:44:22;;;;;;;9.50;8.50;;;;;;;;;;5048379;28;20359;-73
2022/08/14 05:46:48;;;;;;;8.17;7.47;;;;;;;;;;5070029;28;20197;-73
2022/08/14 05:49:14;;;;;;;7.90;7.10;;;;;;;;;;5055630;28;20188;-74
2022/08/14 05:51:41;;;;;;;8.67;7.90;;;;;;;;;;5073067;28;20248;-74
2022/08/14 05:54:08;;;;;;;7.73;7.03;;;;;;;;;;5074481;28;20184;-74
2022/08/14 05:56:34;;;;;;;8.77;7.20;;;;;;;;;;5057920;28;20765;-74
2022/08/14 05:59:00;;;;;;;8.23;7.43;;;;;;;;;;5050838;28;20510;-73
2022/08/14 06:01:26;;;;;;;8.13;7.33;;;;;;;;;;5055871;28;20182;-73
2022/08/14 06:03:52;;;;;;;7.67;6.50;;;;;;;;;;5052204;28;20263;-74
2022/08/14 06:06:19;;;;;;;7.57;6.87;;;;;;;;;;5051326;28;20201;-74
2022/08/14 06:08:45;;;;;;;7.80;7.10;;;;;;;;;;5051577;28;20216;-74
2022/08/14 06:11:11;;;;;;;7.83;7.13;;;;;;;;;;5050594;28;20196;-74
2022/08/14 06:13:38;;;;;;;7.77;7.00;;;;;;;;;;5049203;28;20177;-74
2022/08/14 06:16:05;;;;;;;7.70;6.90;;;;;;;;;;5051506;28;20202;-74
2022/08/14 06:18:32;;;;;;;8.30;7.60;;;;;;;;;;5051449;28;20189;-74
2022/08/14 06:20:58;;;;;;;8.27;7.47;;;;;;;;;;5051886;28;20177;-74
2022/08/14 06:23:24;;;;;;;8.03;7.43;;;;;;;;;;5056472;28;20293;-74
2022/08/14 06:25:50;;;;;;;7.27;6.70;;;;;;;;;;5054926;28;20263;-74
2022/08/14 06:28:21;;;;;;;6.70;6.20;;;;;;;;;;5049684;28;20185;-75
2022/08/14 06:30:47;;;;;;;7.80;7.00;;;;;;;;;;5049156;28;20311;-74
2022/08/14 06:33:14;;;;;;;7.97;7.37;;;;;;;;;;5044793;28;20186;-76
2022/08/14 06:35:41;;;;;;;8.20;7.50;;;;;;;;;;5032601;28;20226;-76
2022/08/14 06:38:07;;;;;;;7.90;7.27;;;;;;;;;;5049666;28;20560;-73
2022/08/14 06:40:34;;;;;;;7.80;7.20;;;;;;;;;;5050768;28;20176;-76
2022/08/14 06:43:10;;;;;;;7.50;6.90;;;;;;;;;;5050370;28;20201;-75
2022/08/14 06:45:37;;;;;;;7.67;7.07;;;;;;;;;;5061794;28;20200;-75
2022/08/14 06:48:04;;;;;;;8.37;7.50;;;;;;;;;;5052770;28;20243;-75
2022/08/14 06:50:30;;;;;;;7.97;7.27;;;;;;;;;;5051404;28;20232;-76
2022/08/14 06:52:58;;;;;;;8.00;7.30;;;;;;;;;;5051130;28;20182;-74
2022/08/14 06:55:24;;;;;;;7.40;6.80;;;;;;;;;;5045112;28;20288;-72
2022/08/14 06:57:51;;;;;;;7.50;6.73;;;;;;;;;;5048457;28;20228;-72
2022/08/14 07:00:21;;;;;;;7.67;7.07;;;;;;;;;;5061218;28;20211;-74
2022/08/14 07:05:45;;;;;;;7.23;6.63;;;;;;;;;;5048006;28;20641;-73
2022/08/14 07:08:19;;;;;;;7.90;7.07;;;;;;;;;;5043256;28;20204;-74
2022/08/14 07:10:47;;;;;;;7.60;7.00;;;;;;;;;;5049595;28;20304;-74
2022/08/14 07:13:14;;;;;;;8.03;7.30;;;;;;;;;;5047284;28;20185;-74
2022/08/14 07:15:45;;;;;;;7.30;6.70;;;;;;;;;;5048582;28;20227;-74
2022/08/14 07:18:12;;;;;;;7.93;7.13;;;;;;;;;;5059697;28;20677;-74
2022/08/14 07:20:39;;;;;;;7.57;6.87;;;;;;;;;;5043757;28;20217;-73
2022/08/14 07:23:06;;;;;;;6.90;6.27;;;;;;;;;;5042640;28;20679;-74
2022/08/14 07:25:32;;;;;;;7.37;6.60;;;;;;;;;;5048066;28;20204;-75
2022/08/14 07:27:59;;;;;;;8.33;6.60;;;;;;;;;;5042179;28;20205;-74
2022/08/14 07:30:25;;;;;;;6.90;6.30;;;;;;;;;;5045220;28;20174;-71
2022/08/14 07:32:51;;;;;;;7.00;6.40;;;;;;;;;;5046883;28;20533;-73
2022/08/14 07:35:18;;;;;;;7.07;6.37;;;;;;;;;;5045125;28;20201;-74
2022/08/14 07:37:46;;;;;;;6.47;5.97;;;;;;;;;;5046900;28;20243;-74
2022/08/14 07:40:13;;;;;;;6.87;6.37;;;;;;;;;;5049271;28;20651;-75
2022/08/14 07:42:39;;;;;;;6.47;5.97;;;;;;;;;;5045180;28;20178;-73
2022/08/14 07:45:05;;;;;;;6.83;6.23;;;;;;;;;;5046189;28;20229;-74
2022/08/14 07:47:31;;;;;;;6.73;6.13;;;;;;;;;;5044353;28;20187;-74
2022/08/14 07:50:00;;;;;;;6.67;6.17;;;;;;;;;;5046140;28;20174;-74
2022/08/14 07:52:26;;;;;;;7.07;6.10;;;;;;;;;;5043785;28;20186;-73
2022/08/14 07:54:53;;;;;;;5.93;5.43;;;;;;;;;;5044754;28;20300;-72
2022/08/14 07:57:19;;;;;;;6.50;5.80;;;;;;;;;;5063708;28;20182;-71
2022/08/14 07:59:47;;;;;;;6.10;5.60;;;;;;;;;;5034665;28;20205;-70
2022/08/14 08:02:15;;;;;;;6.17;5.67;;;;;;;;;;5049068;28;20234;-72
2022/08/14 08:04:44;;;;;;;6.90;6.33;;;;;;;;;;5047537;28;20221;-72
2022/08/14 08:07:11;;;;;;;7.03;5.87;;;;;;;;;;5048608;28;20643;-71
2022/08/14 08:09:40;;;;;;;6.30;5.80;;;;;;;;;;5051372;28;20186;-72
2022/08/14 08:12:07;;;;;;;6.20;5.80;;;;;;;;;;5050316;28;20185;-71
2022/08/14 08:14:34;;;;;;;6.00;5.40;;;;;;;;;;5050354;28;20273;-72
2022/08/14 08:17:00;;;;;;;6.33;5.73;;;;;;;;;;5053794;28;20651;-72
2022/08/14 08:19:26;;;;;;;5.77;5.37;;;;;;;;;;5051404;28;20217;-72
2022/08/14 08:21:53;;;;;;;5.40;4.97;;;;;;;;;;5049868;28;21052;-72
2022/08/14 08:24:19;;;;;;;5.77;5.27;;;;;;;;;;5049609;28;20255;-72
2022/08/14 08:26:45;;;;;;;5.43;5.03;;;;;;;;;;5045591;28;20211;-73
2022/08/14 08:29:18;;;;;;;5.77;5.27;;;;;;;;;;5049212;28;20227;-70
2022/08/14 08:31:49;;;;;;;6.00;5.50;;;;;;;;;;5047875;28;20166;-72
2022/08/14 08:34:15;;;;;;;5.60;5.20;;;;;;;;;;5046622;28;20198;-71
2022/08/14 08:36:42;;;;;;;5.77;5.27;;;;;;;;;;5046414;28;20222;-72
2022/08/14 08:39:09;;;;;;;5.43;5.03;;;;;;;;;;5045986;28;20765;-72
2022/08/14 08:41:53;;;;;;;5.30;4.90;;;;;;;;;;5043511;28;20188;-72
2022/08/14 08:44:19;;;;;;;5.67;5.00;;;;;;;;;;5042472;28;20386;-71
2022/08/14 08:46:56;;;;;;;5.50;5.10;;;;;;;;;;5029487;28;20227;-70
2022/08/14 08:49:22;;;;;;;5.30;4.83;;;;;;;;;;5047366;28;20180;-71
2022/08/14 08:51:49;;;;;;;5.63;5.13;;;;;;;;;;5043299;28;21308;-69
2022/08/14 08:54:16;;;;;;;5.50;5.10;;;;;;;;;;5048282;28;20696;-72
2022/08/14 08:56:44;;;;;;;5.70;5.20;;;;;;;;;;5048454;28;20690;-70
2022/08/14 08:59:16;;;;;;;5.50;5.00;;;;;;;;;;5048194;28;20200;-70
2022/08/14 09:01:46;;;;;;;5.27;4.87;;;;;;;;;;5048060;28;20182;-68
2022/08/14 09:04:13;;;;;;;5.77;5.37;;;;;;;;;;5044586;28;20213;-73
2022/08/14 09:06:45;;;;;;;5.57;5.17;;;;;;;;;;5029008;28;20295;-73
2022/08/14 09:09:21;;;;;;;5.83;5.33;;;;;;;;;;5047442;28;20174;-73
2022/08/14 09:11:48;;;;;;;5.53;5.13;;;;;;;;;;5058458;28;20184;-73
2022/08/14 09:14:15;;;;;;;5.40;5.00;;;;;;;;;;5051013;28;20710;-68
2022/08/14 09:16:41;;;;;;;5.47;4.97;;;;;;;;;;5049447;28;20201;-71
2022/08/14 09:19:08;;;;;;;8.43;5.10;;;;;;;;;;5054267;28;20177;-74
2022/08/14 09:21:35;;;;;;;5.63;5.13;;;;;;;;;;5066770;28;20262;-70
2022/08/14 09:24:01;;;;;;;5.30;4.73;;;;;;;;;;5085760;28;20219;-69
2022/08/14 09:26:28;;;;;;;5.63;5.13;;;;;;;;;;5076520;28;20200;-70
2022/08/14 09:28:54;;;;;;;5.57;5.00;;;;;;;;;;5057898;28;20191;-71
2022/08/14 09:31:21;;;;;;;5.40;4.90;;;;;;;;;;5052326;28;20190;-69
2022/08/14 09:34:07;;;;;;;4.97;4.57;;;;;;;;;;5083424;28;20212;-68
2022/08/14 09:36:34;;;;;;;6.17;5.27;;;;;;;;;;5086236;28;20217;-68
2022/08/14 09:39:19;;;;;;;5.27;4.87;;;;;;;;;;5089619;28;20213;-68
2022/08/14 09:42:03;;;;;;;5.23;4.73;;;;;;;;;;5078259;28;20241;-71
2022/08/14 09:44:32;;;;;;;5.40;5.00;;;;;;;;;;5084065;28;20346;-70
2022/08/14 09:46:58;;;;;;;10.90;5.23;;;;;;;;;;5055562;28;20176;-69
2022/08/14 09:49:32;;;;;;;5.87;5.00;;;;;;;;;;5069818;28;20182;-68
2022/08/14 09:52:03;;;;;;;4.97;4.60;;;;;;;;;;5074646;28;20309;-67
2022/08/14 09:54:36;;;;;;;5.83;5.10;;;;;;;;;;5082007;28;20622;-71
2022/08/14 09:57:05;;;;;;;5.60;5.10;;;;;;;;;;5089332;28;20177;-69
2022/08/14 09:59:39;;;;;;;5.47;4.80;;;;;;;;;;5088857;28;20209;-71
2022/08/14 10:02:17;;;;;;;5.13;4.73;;;;;;;;;;5089727;28;20211;-68
2022/08/14 10:04:44;;;;;;;4.87;4.40;;;;;;;;;;5071203;28;20686;-71
2022/08/14 10:07:10;;;;;;;6.47;4.80;;;;;;;;;;5080796;28;20195;-71
2022/08/14 10:09:52;;;;;;;6.40;4.70;;;;;;;;;;5081934;28;20192;-70
2022/08/14 10:12:19;;;;;;;4.73;4.40;;;;;;;;;;5061987;28;20190;-70
2022/08/14 10:14:46;;;;;;;4.57;4.23;;;;;;;;;;5082868;28;20190;-71
2022/08/14 10:17:25;;;;;;;4.83;4.43;;;;;;;;;;5080851;28;20174;-71
2022/08/14 10:19:51;;;;;;;5.57;4.70;;;;;;;;;;5088333;28;20195;-68
2022/08/14 10:22:27;;;;;;;5.80;4.80;;;;;;;;;;5088190;28;20188;-71
2022/08/14 10:24:53;;;;;;;4.87;4.47;;;;;;;;;;5081191;28;20211;-68
2022/08/14 10:27:22;;;;;;;4.50;4.20;;;;;;;;;;5071039;28;20193;-71
2022/08/14 10:29:52;;;;;;;4.67;4.33;;;;;;;;;;5081693;28;20215;-71
2022/08/14 10:32:21;;;;;;;4.40;4.10;;;;;;;;;;5071061;28;20238;-69
2022/08/14 10:34:48;;;;;;;4.53;4.20;;;;;;;;;;5077255;28;20182;-70
2022/08/14 10:37:15;;;;;;;4.63;4.17;;;;;;;;;;5080337;28;20193;-71
2022/08/14 10:39:43;;;;;;;4.83;4.10;;;;;;;;;;5084123;28;20189;-70
2022/08/14 10:42:13;;;;;;;4.17;3.87;;;;;;;;;;5077845;28;20181;-71
2022/08/14 10:44:41;;;;;;;4.70;4.30;;;;;;;;;;5084359;28;20231;-70
2022/08/14 10:47:08;;;;;;;3.77;3.47;;;;;;;;;;5087973;28;20185;-72
2022/08/14 10:49:55;;;;;;;3.57;3.30;;;;;;;;;;5062513;28;20279;-69
2022/08/14 10:52:23;;;;;;;3.53;3.23;;;;;;;;;;5069277;28;20228;-72
2022/08/14 10:54:50;;;;;;;4.30;3.90;;;;;;;;;;5078343;28;20220;-71
2022/08/14 10:57:18;;;;;;;4.60;3.90;;;;;;;;;;5087538;28;20188;-70
2022/08/14 10:59:46;;;;;;;4.30;3.97;;;;;;;;;;5087630;28;20181;-70
2022/08/14 11:02:20;;;;;;;4.83;4.07;;;;;;;;;;5086792;28;20196;-70
2022/08/14 11:04:59;;;;;;;3.83;3.53;;;;;;;;;;5079272;28;20276;-70
2022/08/14 11:07:25;;;;;;;3.93;3.63;;;;;;;;;;5062563;28;20182;-70
2022/08/14 11:09:56;;;;;;;3.63;3.33;;;;;;;;;;5073437;28;20174;-71
2022/08/14 11:12:24;;;;;;;4.00;3.60;;;;;;;;;;5044849;28;20174;-70
2022/08/14 11:14:51;;;;;;;3.73;3.43;;;;;;;;;;5072999;28;20221;-72
2022/08/14 11:17:17;;;;;;;4.23;3.40;;;;;;;;;;5083565;28;20188;-71
2022/08/14 11:19:44;;;;;;;3.60;3.30;;;;;;;;;;5082147;28;20175;-72
2022/08/14 11:22:10;;;;;;;3.63;3.33;;;;;;;;;;5059161;28;20193;-72
2022/08/14 11:24:38;;;;;;;3.50;3.30;;;;;;;;;;5058165;28;20214;-72
2022/08/14 11:27:05;;;;;;;3.50;3.27;;;;;;;;;;5073168;28;20218;-72
2022/08/14 11:29:31;;;;;;;3.70;3.40;;;;;;;;;;5085731;28;20232;-71
2022/08/14 11:31:58;;;;;;;5.40;3.40;;;;;;;;;;5084259;28;20220;-71
2022/08/14 11:34:25;;;;;;;4.07;3.23;;;;;;;;;;5075003;28;20179;-71
2022/08/14 11:36:51;;;;;;;4.93;3.27;;;;;;;;;;5051321;28;20294;-72
2022/08/14 11:39:24;;;;;;;4.00;2.97;;;;;;;;;;5033657;28;20192;-71
2022/08/14 11:41:50;;;;;;;3.40;3.10;;;;;;;;;;5045527;28;20227;-70
2022/08/14 11:44:16;;;;;;;3.60;3.30;;;;;;;;;;5082023;28;20209;-71
2022/08/14 11:46:42;;;;;;;3.70;2.90;;;;;;;;;;5059715;28;20202;-71
2022/08/14 11:49:09;;;;;;;3.77;3.00;;;;;;;;;;5079983;28;20182;-72
2022/08/14 11:51:35;;;;;;;3.10;2.90;;;;;;;;;;5056734;28;20282;-72
2022/08/14 11:54:02;;;;;;;3.40;3.03;;;;;;;;;;5079299;28;20198;-68
2022/08/14 11:56:36;;;;;;;3.77;3.47;;;;;;;;;;5075187;28;20195;-72
2022/08/14 11:59:02;;;;;;;3.30;3.00;;;;;;;;;;5081352;28;20195;-71
2022/08/14 12:01:32;;;;;;;3.30;3.00;;;;;;;;;;5081917;28;20220;-71
2022/08/14 12:04:18;;;;;;;3.40;3.10;;;;;;;;;;5041732;28;20217;-72
2022/08/14 12:06:49;;;;;;;3.60;3.40;;;;;;;;;;5086591;28;20212;-69
2022/08/14 12:09:28;;;;;;;4.70;3.53;;;;;;;;;;5065860;28;20190;-72
2022/08/14 12:11:55;;;;;;;3.50;3.20;;;;;;;;;;5062193;28;20189;-71
2022/08/14 12:14:21;;;;;;;3.60;3.30;;;;;;;;;;5063437;28;20221;-72
2022/08/14 12:16:57;;;;;;;3.97;3.33;;;;;;;;;;5064543;28;20737;-72
2022/08/14 12:19:24;;;;;;;3.80;3.50;;;;;;;;;;5048493;28;20183;-72
2022/08/14 12:21:54;;;;;;;3.40;3.10;;;;;;;;;;5062530;28;20220;-73
2022/08/14 12:24:27;;;;;;;3.40;3.20;;;;;;;;;;5062766;28;20202;-72
2022/08/14 12:26:54;;;;;;;3.60;3.30;;;;;;;;;;5076214;28;20205;-72
2022/08/14 12:29:21;;;;;;;3.60;3.30;;;;;;;;;;5066806;28;20189;-72
2022/08/14 12:31:57;;;;;;;4.00;3.20;;;;;;;;;;5082881;28;20182;-73
2022/08/14 12:34:30;;;;;;;3.23;2.93;;;;;;;;;;5084059;28;20189;-72
2022/08/14 12:37:06;;;;;;;3.43;3.13;;;;;;;;;;5072380;28;20178;-72
2022/08/14 12:39:33;;;;;;;3.60;3.30;;;;;;;;;;5072436;28;20181;-72
2022/08/14 12:42:05;;;;;;;3.90;3.03;;;;;;;;;;5068605;28;20274;-73
2022/08/14 12:44:36;;;;;;;3.90;3.00;;;;;;;;;;5067019;28;20207;-73
2022/08/14 12:47:26;;;;;;;3.33;3.03;;;;;;;;;;5075587;28;20180;-73
2022/08/14 12:49:53;;;;;;;2.97;2.77;;;;;;;;;;5080878;28;20179;-72
2022/08/14 12:52:34;;;;;;;4.33;3.20;;;;;;;;;;5068066;28;20188;-72
2022/08/14 12:55:02;;;;;;;3.53;3.23;;;;;;;;;;5068534;28;20267;-70
2022/08/14 12:57:45;;;;;;;3.30;3.00;;;;;;;;;;5061209;28;20193;-73
2022/08/14 13:00:13;;;;;;;5.10;3.83;;;;;;;;;;5067573;28;20192;-73
2022/08/14 13:02:40;;;;;;;3.63;3.20;;;;;;;;;;5075088;28;20184;-73
2022/08/14 13:05:08;;;;;;;3.20;3.00;;;;;;;;;;5073683;28;20268;-73
2022/08/14 13:07:36;;;;;;;4.05;3.42;;;;;;;;;;5056605;28;20191;-74
2022/08/14 13:10:03;;;;;;;4.90;3.38;;;;;;;;;;5056653;28;20200;-75
2022/08/14 13:12:31;;;;;;;3.35;3.15;;;;;;;;;;5065558;28;20182;-73
2022/08/14 13:14:58;;;;;;;3.45;3.03;;;;;;;;;;5055537;28;20215;-74
2022/08/14 13:17:25;;;;;;;5.78;3.17;;;;;;;;;;5058011;28;20184;-73
2022/08/14 13:19:54;;;;;;;8.98;3.42;;;;;;;;;;5038878;28;20193;-74
2022/08/14 13:22:25;;;;;;;3.85;3.45;;;;;;;;;;5052682;28;20202;-74
2022/08/14 13:24:52;;;;;;;3.35;3.15;;;;;;;;;;5045100;28;20218;-73
2022/08/14 13:27:21;;;;;;;3.10;2.90;;;;;;;;;;5051602;28;20193;-73
2022/08/14 13:29:51;;;;;;;3.15;2.85;;;;;;;;;;5055151;28;20178;-74
2022/08/14 13:32:17;;;;;;;4.05;3.20;;;;;;;;;;5073982;28;20247;-73
2022/08/14 13:34:44;;;;;;;3.30;2.72;;;;;;;;;;5068337;28;20241;-74
2022/08/14 13:37:11;;;;;;;3.50;3.20;;;;;;;;;;5055628;28;20192;-75
2022/08/14 13:39:37;;;;;;;3.03;2.78;;;;;;;;;;5051864;28;20184;-74
2022/08/14 13:42:07;;;;;;;3.22;2.92;;;;;;;;;;5055117;28;20651;-74
2022/08/14 13:44:34;;;;;;;3.25;3.00;;;;;;;;;;5018506;28;20218;-74
2022/08/14 13:47:05;;;;;;;2.90;2.70;;;;;;;;;;5019484;28;20336;-75
2022/08/14 13:49:32;;;;;;;3.15;2.95;;;;;;;;;;5055302;28;20740;-75
2022/08/14 13:52:00;;;;;;;3.25;3.05;;;;;;;;;;5053855;28;20190;-74
2022/08/14 13:54:30;;;;;;;4.65;2.72;;;;;;;;;;5055132;28;20525;-74
2022/08/14 13:56:58;;;;;;;3.13;2.85;;;;;;;;;;5056569;28;20244;-72
2022/08/14 13:59:27;;;;;;;3.20;2.90;;;;;;;;;;5060086;28;20246;-74
2022/08/14 14:01:55;;;;;;;3.65;2.90;;;;;;;;;;5061081;28;20267;-74
2022/08/14 14:04:23;;;;;;;3.00;2.80;;;;;;;;;;5062090;28;20216;-74
2022/08/14 14:06:50;;;;;;;3.28;3.08;;;;;;;;;;5059070;28;20731;-74
2022/08/14 14:09:27;;;;;;;2.80;2.60;;;;;;;;;;5055456;28;20222;-74
2022/08/14 14:11:54;;;;;;;2.92;2.50;;;;;;;;;;5054739;28;20179;-74
2022/08/14 14:14:21;;;;;;;3.58;3.00;;;;;;;;;;5055542;28;20667;-73
2022/08/14 14:16:48;;;;;;;3.20;2.90;;;;;;;;;;5059686;28;20283;-74
2022/08/14 14:19:18;;;;;;;3.10;2.90;;;;;;;;;;5052686;28;20189;-74
2022/08/14 14:21:44;;;;;;;3.15;2.92;;;;;;;;;;5047528;28;20266;-74
2022/08/14 14:24:10;;;;;;;3.78;2.72;;;;;;;;;;5046497;28;20305;-73
2022/08/14 14:26:37;;;;;;;3.10;2.80;;;;;;;;;;5032206;28;20518;-74
2022/08/14 14:29:05;;;;;;;2.88;2.67;;;;;;;;;;5050146;28;20635;-74
2022/08/14 14:31:31;;;;;;;3.08;2.88;;;;;;;;;;5052547;28;20180;-72
2022/08/14 14:34:01;;;;;;;3.08;2.88;;;;;;;;;;5053661;28;20188;-73
2022/08/14 14:36:29;;;;;;;3.30;3.00;;;;;;;;;;5049421;28;20333;-74
2022/08/14 14:38:57;;;;;;;4.78;3.42;;;;;;;;;;5048615;28;20912;-72
2022/08/14 14:41:24;;;;;;;3.53;3.20;;;;;;;;;;5041604;28;20191;-73
2022/08/14 14:43:52;;;;;;;3.10;2.88;;;;;;;;;;5033271;28;20220;-74
2022/08/14 14:46:20;;;;;;;4.10;2.85;;;;;;;;;;5048603;28;20199;-73
2022/08/14 14:48:46;;;;;;;3.28;2.97;;;;;;;;;;5049841;28;20197;-73
2022/08/14 14:51:13;;;;;;;3.00;2.80;;;;;;;;;;5032619;28;20185;-72
2022/08/14 14:53:41;;;;;;;2.90;2.70;;;;;;;;;;5033273;28;20193;-74
2022/08/14 14:56:10;;;;;;;3.10;2.80;;;;;;;;;;5050967;28;20199;-74
2022/08/14 14:58:38;;;;;;;4.37;3.20;;;;;;;;;;5036879;28;20189;-73
2022/08/14 15:01:05;;;;;;;3.30;3.00;;;;;;;;;;5050995;28;20188;-73
2022/08/14 15:03:32;;;;;;;3.00;2.80;;;;;;;;;;5050180;28;20218;-74
2022/08/14 15:05:58;;;;;;;4.33;3.30;;;;;;;;;;5054481;28;20210;-73
2022/08/14 15:08:25;;;;;;;3.30;3.00;;;;;;;;;;5054093;28;20191;-73